Latest Weather Observations for Armidale Airport

IDN60801

Issued at 1:32 pm EST Tuesday 22 August 2017 (issued every 30 minutes, with the page automatically refreshed every 10 minutes)

About weather observations | Map of weather stations | Latest weather observations for NSW | Other Formats
Station Details ID: 056238 Name: ARMIDALE AIRPORT AWS Lat: -30.53 Lon: 151.62 Height: 1079.0 m
Data from the previous 72 hours. | See also: Recent months at Armidale Airport
Date/Time
EST
Temp
°C
App
Temp
°C
Dew
Point
°C
Rel
Hum
%
Delta-T
°C
Wind Press
QNH
hPa
Press
MSL
hPa
Rain since
9am
mm
Dir  Spd
km/h
Gust
km/h
Spd
kts
Gust
kts
22/01:30pm 16.6 11.9 -2.0 28 8.1 NW 13 20 7 11 1017.8 1017.4 0.0
22/01:00pm 15.8 11.7 -0.4 33 7.3 WNW 11 20 6 11 1017.9 1017.6 0.0
22/12:30pm 17.2 13.8 3.8 41 6.6 W 11 22 6 12 1018.0 1017.7 0.0
22/12:00pm 16.2 11.3 2.2 39 6.6 WNW 17 24 9 13 1018.4 1018.0 0.0
22/11:30am 15.6 10.8 2.7 42 6.2 NW 17 26 9 14 1018.7 1018.4 0.0
22/11:00am 15.5 10.9 3.9 46 5.7 NW 17 24 9 13 1018.8 1018.5 0.0
22/10:30am 15.0 10.3 5.0 51 5.0 NW 19 26 10 14 1018.9 1018.6 0.0
22/10:00am 14.0 9.2 5.4 56 4.3 NW 20 26 11 14 1019.0 1018.7 0.0
22/09:30am 13.6 9.0 6.5 62 3.6 NW 20 30 11 16 1018.9 1018.6 0.0
22/09:00am 12.1 5.8 5.5 64 3.3 NW 28 35 15 19 1019.0 1018.7 0.0
22/08:30am 11.4 6.1 6.7 73 2.4 NW 24 32 13 17 1019.1 1018.8 0.0
22/08:00am 9.8 5.8 6.5 80 1.6 NW 17 24 9 13 1019.0 1018.7 0.0
22/07:30am 7.8 3.4 4.9 82 1.4 NW 17 22 9 12 1018.8 1018.5 0.0
22/07:00am 6.7 1.7 3.7 81 1.4 NW 19 24 10 13 1018.6 1018.2 0.0
22/06:30am 6.4 2.1 3.2 80 1.4 NNW 15 24 8 13 1018.1 1017.8 0.0
22/06:00am 5.8 1.7 2.4 79 1.5 NNW 13 17 7 9 1017.8 1017.4 0.0
22/05:30am 4.5 1.5 0.5 75 1.6 NW 6 7 3 4 1017.7 1017.3 0.0
22/05:00am 4.5 1.2 0.1 73 1.8 NNW 7 9 4 5 1017.5 1017.1 0.0
22/04:30am 4.1 0.2 -1.5 67 2.2 NW 9 11 5 6 1017.4 1017.0 0.0
22/04:00am 4.2 0.3 -1.4 67 2.2 WNW 9 11 5 6 1017.3 1016.9 0.0
22/03:30am 4.3 0.0 -1.7 65 2.3 NW 11 13 6 7 1017.1 1016.8 0.0
22/03:00am 4.3 -0.4 -1.9 64 2.4 NW 13 15 7 8 1017.3 1016.9 0.0
22/02:30am 4.2 -0.6 -2.6 61 2.6 NW 13 15 7 8 1017.4 1017.0 0.0
22/02:00am 4.6 0.6 -2.3 61 2.7 WNW 9 11 5 6 1017.7 1017.3 0.0
22/01:30am 3.9 0.2 -2.9 61 2.6 NW 7 9 4 5 1017.9 1017.6 0.0
22/01:00am 4.0 0.0 -2.4 63 2.4 WNW 9 9 5 5 1018.1 1017.8 0.0
22/12:30am 4.1 0.2 -1.3 68 2.1 SW 9 9 5 5 1018.4 1018.0 0.0
22/12:26am 3.9 0.4 -1.5 68 2.1 SW 7 9 4 5 1018.5 1018.1 0.0
22/12:07am 3.4 -0.7 -3.4 61 2.5 SW 9 11 5 6 1018.5 1018.1 0.0
22/12:00am 5.9 2.0 -1.7 58 3.0 WSW 9 11 5 6 1018.5 1018.1 0.0
 
Date/Time
EST
Temp
°C
App
Temp
°C
Dew
Point
°C
Rel
Hum
%
Delta-T
°C
Wind Press
QNH
hPa
Press
MSL
hPa
Rain since
9am
mm
Dir  Spd
km/h
Gust
km/h
Spd
kts
Gust
kts
21/11:30pm 5.4 1.4 -2.4 57 3.0 NNW 9 11 5 6 1018.5 1018.1 0.0
21/11:00pm 5.6 2.1 -1.5 60 2.8 NNW 7 9 4 5 1018.6 1018.2 0.0
21/10:30pm 5.7 2.2 -1.7 59 2.9 NW 7 9 4 5 1018.8 1018.5 0.0
21/10:00pm 5.4 2.0 -2.4 57 3.0 WNW 6 7 3 4 1018.8 1018.5 0.0
21/09:30pm 6.8 2.5 -1.6 55 3.4 NNW 11 13 6 7 1018.5 1018.1 0.0
21/09:00pm 6.6 2.3 -2.0 54 3.4 NNW 11 13 6 7 1018.6 1018.2 0.0
21/08:30pm 6.3 3.0 -0.9 60 2.9 NE 6 7 3 4 1018.6 1018.2 0.0
21/08:00pm 6.8 3.6 0.9 66 2.5 NE 7 9 4 5 1018.5 1018.1 0.0
21/07:30pm 6.0 2.5 1.0 70 2.1 NNE 9 11 5 6 1018.5 1018.1 0.0
21/07:00pm 6.7 3.2 1.2 68 2.4 NNE 9 13 5 7 1018.4 1018.0 0.0
21/06:30pm 6.9 4.2 0.1 62 2.8 WNW 4 6 2 3 1018.6 1018.2 0.0
21/06:00pm 7.2 4.1 0.0 60 3.0 WNW 6 7 3 4 1018.5 1018.1 0.0
21/05:30pm 7.9 4.8 0.2 58 3.3 WNW 6 9 3 5 1018.5 1018.1 0.0
21/05:00pm 8.9 5.2 0.1 54 3.7 WSW 9 11 5 6 1018.5 1018.1 0.0
21/04:30pm 10.0 5.4 -1.4 45 4.7 WNW 13 19 7 10 1018.1 1017.8 0.0
21/04:00pm 10.7 4.6 -2.7 39 5.4 NW 20 28 11 15 1017.8 1017.4 0.0
21/03:30pm 10.9 4.2 -3.9 35 5.9 NW 22 30 12 16 1017.6 1017.2 0.0
21/03:00pm 10.8 3.2 -5.6 31 6.2 NW 26 33 14 18 1017.8 1017.4 0.0
21/02:30pm 11.3 3.3 -5.6 30 6.5 NW 28 39 15 21 1017.5 1017.1 0.0
21/02:00pm 11.4 3.5 -4.3 33 6.2 NW 28 39 15 21 1017.7 1017.3 0.0
21/01:30pm 11.1 2.4 -3.4 36 5.8 NW 33 48 18 26 1018.3 1017.9 0.0
21/01:00pm 12.0 4.2 -3.4 34 6.2 NW 28 39 15 21 1017.9 1017.6 0.0
21/12:30pm 12.2 6.3 -0.6 41 5.5 NW 20 30 11 16 1018.7 1018.4 0.0
21/12:00pm 11.3 5.3 -1.8 40 5.5 NNW 20 32 11 17 1019.1 1018.8 0.0
21/11:30am 10.7 3.8 -2.3 40 5.3 NNW 24 32 13 17 1019.6 1019.3 0.0
21/11:00am 10.6 3.8 -2.1 41 5.2 NNW 24 35 13 19 1020.3 1020.0 0.0
21/10:30am 10.8 4.1 -1.3 43 5.1 NNW 24 35 13 19 1020.8 1020.5 0.0
21/10:00am 9.7 3.4 -1.1 47 4.5 NNW 22 30 12 16 1021.0 1020.7 0.0
21/09:30am 9.7 4.8 5.1 73 2.2 NNW 20 28 11 15 1021.5 1021.2 0.0
21/09:00am 8.3 5.9 7.2 93 0.5 NNW 9 15 5 8 1021.1 1020.9 0.0
21/08:30am 4.5 1.9 4.2 98 0.1 ENE 7 9 4 5 1021.3 1021.0 0.0
21/08:00am 4.0 1.5 4.0 100 0.0 NNE 6 9 3 5 1021.1 1020.9 0.0
21/07:30am 0.8 -2.2 0.8 100 0.0 WNW 6 6 3 3 1021.0 1020.7 0.0
21/07:00am -0.9 -3.4 -0.9 100 0.0 NE 2 7 1 4 1020.9 1020.6 0.0
21/06:30am -0.1 -3.8 -0.1 100 0.0 ENE 9 11 5 6 1020.6 1020.3 0.0
21/06:00am -1.5 -6.2 -1.5 100 0.0 ENE 13 15 7 8 1019.9 1019.6 0.0
21/05:30am -1.4 -6.4 -1.4 100 0.0 NE 15 15 8 8 1019.7 1019.4 0.0
21/05:00am -0.9 -5.9 -0.9 100 0.0 ENE 15 15 8 8 1019.3 1018.9 0.0
21/04:30am -0.8 -5.4 -0.8 100 0.0 ENE 13 15 7 8 1019.4 1019.0 0.0
21/04:00am -0.9 -5.9 -0.9 100 0.0 ENE 15 17 8 9 1019.5 1019.2 0.0
21/03:30am -1.9 -6.2 -1.9 100 0.0 ENE 11 11 6 6 1019.9 1019.6 0.0
21/03:00am -0.6 -5.5 -0.6 100 0.0 ENE 15 15 8 8 1020.1 1019.8 0.0
21/02:30am -0.3 -4.0 -0.3 100 0.0 ENE 9 11 5 6 1020.3 1020.0 0.0
21/02:00am -1.1 -4.9 -1.1 100 0.0 ENE 9 11 5 6 1020.5 1020.2 0.0
21/01:30am -0.4 -4.2 -0.5 99 0.0 ENE 9 11 5 6 1020.7 1020.4 0.0
21/01:00am -0.6 -4.8 -0.7 99 0.0 ENE 11 13 6 7 1020.6 1020.3 0.0
21/12:30am 0.3 -3.8 0.0 98 0.1 ENE 11 13 6 7 1020.9 1020.6 0.0
21/12:00am -0.4 -4.2 -1.0 96 0.2 NE 9 9 5 5 1020.8 1020.5 0.0
 
Date/Time
EST
Temp
°C
App
Temp
°C
Dew
Point
°C
Rel
Hum
%
Delta-T
°C
Wind Press
QNH
hPa
Press
MSL
hPa
Rain since
9am
mm
Dir  Spd
km/h
Gust
km/h
Spd
kts
Gust
kts
20/11:30pm 0.6 -3.1 -0.3 94 0.3 ENE 9 13 5 7 1021.0 1020.7 0.0
20/11:00pm 0.4 -3.4 -0.6 93 0.4 NE 9 11 5 6 1021.3 1021.0 0.0
20/10:30pm 1.2 -3.3 -0.4 89 0.6 ENE 13 15 7 8 1021.3 1021.0 0.0
20/10:00pm 3.6 -0.7 1.2 84 1.0 ESE 13 15 7 8 1021.5 1021.2 0.0
20/09:30pm 3.8 -0.5 0.8 81 1.2 SE 13 15 7 8 1021.6 1021.3 0.0
20/09:00pm 4.6 0.4 1.5 80 1.3 ESE 13 15 7 8 1021.3 1021.0 0.0
20/08:30pm 4.6 0.7 0.9 77 1.5 ESE 11 13 6 7 1021.1 1020.9 0.0
20/08:00pm 5.0 1.8 0.6 73 1.8 ESE 7 11 4 6 1021.1 1020.9 0.0
20/07:30pm 4.6 0.5 0.0 72 1.9 ESE 11 13 6 7 1021.1 1020.9 0.0
20/07:00pm 5.4 1.0 0.2 69 2.1 ESE 13 13 7 7 1020.8 1020.5 0.0
20/06:30pm 6.1 1.7 0.2 66 2.5 ESE 13 17 7 9 1020.5 1020.2 0.0
20/06:00pm 7.0 2.2 0.2 62 2.8 ESE 15 20 8 11 1020.3 1020.0 0.0
20/05:30pm 7.7 3.3 0.2 59 3.2 ESE 13 17 7 9 1020.3 1020.0 0.0
20/05:00pm 8.6 3.9 0.6 57 3.4 ESE 15 22 8 12 1020.1 1019.8 0.0
20/04:30pm 9.5 2.9 -0.1 51 4.1 SE 24 32 13 17 1019.9 1019.6 0.0
20/04:00pm 10.1 5.3 0.2 50 4.3 SE 15 20 8 11 1019.9 1019.6 0.0
20/03:30pm 11.5 6.0 0.3 46 4.9 SE 19 26 10 14 1019.8 1019.5 0.0
20/03:00pm 11.3 5.4 -0.5 44 5.1 S 20 26 11 14 1019.6 1019.3 0.0
20/02:30pm 11.2 5.9 -0.9 43 5.2 SSE 17 28 9 15 1019.5 1019.2 0.0
20/02:00pm 10.5 5.6 -0.6 46 4.7 SE 15 28 8 15 1019.7 1019.4 0.0
20/01:30pm 11.3 6.1 -0.2 45 5.0 S 17 30 9 16 1019.8 1019.5 0.0
20/01:00pm 10.1 5.6 -0.1 49 4.4 ESE 13 22 7 12 1019.9 1019.6 0.0
20/12:30pm 9.6 5.4 -0.6 49 4.3 S 11 20 6 11 1020.4 1020.1 0.0
20/12:00pm 10.2 4.3 -0.6 47 4.6 S 20 32 11 17 1020.4 1020.1 0.0
20/11:30am 9.5 4.7 -0.1 51 4.1 SSE 15 24 8 13 1021.0 1020.7 0.0
20/11:00am 8.7 4.2 2.3 64 2.9 SE 15 20 8 11 1021.4 1021.1 0.0
20/10:30am 6.8 2.2 1.3 68 2.4 SE 15 20 8 11 1021.8 1021.5 0.0
20/10:00am 5.7 1.5 1.4 74 1.8 S 13 17 7 9 1022.1 1021.9 0.0
20/09:30am 4.7 0.7 0.7 75 1.7 SSW 11 19 6 10 1022.1 1021.9 0.0
20/09:00am 3.4 0.0 -0.4 76 1.5 SSE 7 13 4 7 1021.9 1021.7 0.0
20/08:30am 2.6 -1.1 -0.2 82 1.1 SSW 9 15 5 8 1021.6 1021.3 0.0
20/08:00am 1.5 -1.9 -0.6 86 0.8 WSW 7 9 4 5 1021.6 1021.3 0.0
20/07:30am 0.3 -3.0 -1.3 89 0.6 WNW 6 7 3 4 1021.3 1021.0 0.0
20/07:00am -1.9 -5.5 -3.3 90 0.4 W 6 7 3 4 1020.7 1020.4 0.0
20/06:30am -2.5 -6.7 -4.1 89 0.4 WSW 9 11 5 6 1020.5 1020.2 0.0
20/06:00am -0.7 -5.1 -2.4 88 0.6 SSW 11 15 6 8 1020.3 1020.0 0.0
20/05:30am -2.8 -7.1 -4.5 88 0.4 WSW 9 13 5 7 1020.0 1019.7 0.0
20/05:00am -2.0 -5.8 -4.0 86 0.6 WSW 7 9 4 5 1019.7 1019.4 0.0
20/04:30am -1.6 -5.4 -3.6 86 0.6 SW 7 9 4 5 1019.1 1018.8 0.0
20/04:00am -1.6 -5.4 -3.6 86 0.6 SW 7 9 4 5 1019.0 1018.7 0.0
20/03:30am -2.7 -8.1 -4.9 85 0.6 WSW 15 17 8 9 1019.0 1018.7 0.0
20/03:00am -2.5 -7.2 -4.7 85 0.6 WSW 11 13 6 7 1019.0 1018.7 0.0
20/02:30am -1.8 -6.8 -4.3 83 0.8 WSW 13 17 7 9 1019.1 1018.8 0.0
20/02:00am -1.8 -8.1 -4.1 84 0.7 WSW 20 22 11 12 1019.4 1019.0 0.0
20/01:30am -2.1 -7.5 -4.6 83 0.7 WSW 15 17 8 9 1019.5 1019.2 0.0
20/01:00am -2.3 -7.4 -4.8 83 0.7 WSW 13 15 7 8 1019.6 1019.3 0.0
20/12:30am -2.4 -7.1 -5.4 80 0.9 WNW 11 13 6 7 1019.4 1019.0 0.0
20/12:00am -1.6 -6.3 -5.1 77 1.1 WSW 11 15 6 8 1018.9 1018.6 0.0
 
Date/Time
EST
Temp
°C
App
Temp
°C
Dew
Point
°C
Rel
Hum
%
Delta-T
°C
Wind Press
QNH
hPa
Press
MSL
hPa
Rain since
9am
mm
Dir  Spd
km/h
Gust
km/h
Spd
kts
Gust
kts
19/11:30pm -1.0 -5.6 -4.5 77 1.2 WSW 11 13 6 7 1019.4 1019.0 0.0
19/11:00pm -1.1 -5.8 -4.8 76 1.2 W 11 13 6 7 1019.5 1019.2 0.0
19/10:30pm -0.6 -6.4 -4.5 75 1.3 WSW 17 17 9 9 1019.6 1019.3 0.0
19/10:00pm -0.9 -6.3 -4.9 74 1.3 WSW 15 17 8 9 1019.4 1019.0 0.0
19/09:30pm -0.5 -5.3 -5.7 68 1.7 W 11 15 6 8 1019.4 1019.0 0.0
19/09:00pm 0.8 -5.6 -5.0 65 2.0 WSW 20 24 11 13 1018.9 1018.6 0.0
19/08:30pm 1.6 -4.3 -5.3 60 2.5 WSW 17 20 9 11 1018.7 1018.4 0.0
19/08:00pm 2.5 -3.8 -5.4 56 2.9 WSW 19 24 10 13 1018.7 1018.4 0.0
19/07:30pm 2.1 -3.8 -5.3 58 2.7 WSW 17 19 9 10 1018.7 1018.4 0.0
19/07:00pm 2.7 -3.6 -5.7 54 3.0 SW 19 22 10 12 1018.5 1018.1 0.0
19/06:30pm 2.0 -4.3 -6.1 55 2.9 WSW 19 24 10 13 1018.3 1017.9 0.0
19/06:00pm 3.2 -2.7 -5.7 52 3.1 WSW 17 20 9 11 1017.9 1017.6 0.0
19/05:30pm 4.4 -2.4 -5.1 50 3.4 WSW 22 32 12 17 1017.6 1017.2 0.0
19/05:00pm 5.5 -1.7 -5.2 46 3.9 WSW 24 32 13 17 1017.4 1017.0 0.0
19/04:30pm 5.9 -2.4 -4.8 46 3.9 WSW 30 39 16 21 1016.6 1016.2 0.0
19/04:00pm 6.2 -2.6 -5.7 42 4.3 WSW 32 44 17 24 1016.3 1015.9 0.0
19/03:30pm 7.1 -2.1 -4.6 43 4.4 WSW 35 43 19 23 1016.1 1015.7 0.0
19/03:00pm 7.7 -1.4 -3.5 45 4.3 WSW 35 48 19 26 1015.9 1015.5 0.0
19/02:33pm 7.9 -0.7 -4.5 41 4.7 WSW 32 50 17 27 1015.6 1015.2 0.0
19/02:30pm 8.8 0.5 -1.9 47 4.4 WSW 32 41 17 22 1015.8 1015.4 0.0
19/02:00pm 8.0 -1.4 -3.2 45 4.4 WSW 37 48 20 26 1015.7 1015.3 0.0
19/01:37pm 7.6 -1.6 -4.2 43 4.5 W 35 57 19 31 1015.5 1015.1 0.0

Other Formats:

Comma delimited format used in spreadsheet applications
http://www.bom.gov.au/fwo/IDN60801/IDN60801.95773.axf

JavaScript Object Notation format (JSON) in row-major order
http://www.bom.gov.au/fwo/IDN60801/IDN60801.95773.json